sensor_id;sensor_type;location;lat;lon;timestamp;P1;durP1;ratioP1;P2;durP2;ratioP2
54269;SDS011;40181;51.560;13.000;2023-10-31T00:00:31;5.82;;;2.70;;
54269;SDS011;40181;51.560;13.000;2023-10-31T00:03:01;2.42;;;1.63;;
54269;SDS011;40181;51.560;13.000;2023-10-31T00:05:32;2.25;;;1.80;;
54269;SDS011;40181;51.560;13.000;2023-10-31T00:08:02;4.75;;;2.22;;
54269;SDS011;40181;51.560;13.000;2023-10-31T00:13:01;3.05;;;1.90;;
54269;SDS011;40181;51.560;13.000;2023-10-31T00:15:31;1.48;;;1.05;;
54269;SDS011;40181;51.560;13.000;2023-10-31T00:18:00;3.25;;;2.10;;
54269;SDS011;40181;51.560;13.000;2023-10-31T00:20:32;3.58;;;2.25;;
54269;SDS011;40181;51.560;13.000;2023-10-31T00:23:01;3.88;;;2.17;;
54269;SDS011;40181;51.560;13.000;2023-10-31T00:25:30;2.15;;;1.48;;
54269;SDS011;40181;51.560;13.000;2023-10-31T00:27:59;2.13;;;1.63;;
54269;SDS011;40181;51.560;13.000;2023-10-31T00:30:29;1.88;;;1.50;;
54269;SDS011;40181;51.560;13.000;2023-10-31T00:32:58;3.65;;;2.13;;
54269;SDS011;40181;51.560;13.000;2023-10-31T00:35:27;3.15;;;2.13;;
54269;SDS011;40181;51.560;13.000;2023-10-31T00:37:59;2.90;;;1.92;;
54269;SDS011;40181;51.560;13.000;2023-10-31T00:40:29;4.47;;;2.80;;
54269;SDS011;40181;51.560;13.000;2023-10-31T00:42:58;3.08;;;1.67;;
54269;SDS011;40181;51.560;13.000;2023-10-31T00:45:27;4.50;;;2.45;;
54269;SDS011;40181;51.560;13.000;2023-10-31T00:47:56;17.02;;;2.35;;
54269;SDS011;40181;51.560;13.000;2023-10-31T00:50:25;5.00;;;2.40;;
54269;SDS011;40181;51.560;13.000;2023-10-31T00:52:55;2.10;;;1.77;;
54269;SDS011;40181;51.560;13.000;2023-10-31T00:55:27;5.40;;;2.35;;
54269;SDS011;40181;51.560;13.000;2023-10-31T00:57:56;2.78;;;2.20;;
54269;SDS011;40181;51.560;13.000;2023-10-31T01:00:25;3.22;;;2.17;;
54269;SDS011;40181;51.560;13.000;2023-10-31T01:02:55;3.53;;;2.42;;
54269;SDS011;40181;51.560;13.000;2023-10-31T01:05:24;6.22;;;3.05;;
54269;SDS011;40181;51.560;13.000;2023-10-31T01:07:54;3.58;;;2.10;;
54269;SDS011;40181;51.560;13.000;2023-10-31T01:10:26;3.58;;;1.70;;
54269;SDS011;40181;51.560;13.000;2023-10-31T01:12:55;2.85;;;2.22;;
54269;SDS011;40181;51.560;13.000;2023-10-31T01:15:24;4.38;;;2.30;;
54269;SDS011;40181;51.560;13.000;2023-10-31T01:17:53;7.13;;;2.90;;
54269;SDS011;40181;51.560;13.000;2023-10-31T01:20:23;4.30;;;2.45;;
54269;SDS011;40181;51.560;13.000;2023-10-31T01:22:52;3.08;;;2.00;;
54269;SDS011;40181;51.560;13.000;2023-10-31T01:25:21;3.28;;;2.60;;
54269;SDS011;40181;51.560;13.000;2023-10-31T01:27:53;3.70;;;2.65;;
54269;SDS011;40181;51.560;13.000;2023-10-31T01:30:23;4.60;;;2.85;;
54269;SDS011;40181;51.560;13.000;2023-10-31T01:32:52;5.13;;;3.40;;
54269;SDS011;40181;51.560;13.000;2023-10-31T01:35:21;5.70;;;3.13;;
54269;SDS011;40181;51.560;13.000;2023-10-31T01:37:50;6.25;;;2.95;;
54269;SDS011;40181;51.560;13.000;2023-10-31T01:40:20;10.23;;;4.10;;
54269;SDS011;40181;51.560;13.000;2023-10-31T01:42:52;6.50;;;3.95;;
54269;SDS011;40181;51.560;13.000;2023-10-31T01:45:22;6.57;;;4.47;;
54269;SDS011;40181;51.560;13.000;2023-10-31T01:47:51;4.88;;;3.40;;
54269;SDS011;40181;51.560;13.000;2023-10-31T01:50:21;5.35;;;2.85;;
54269;SDS011;40181;51.560;13.000;2023-10-31T01:52:50;5.20;;;3.30;;
54269;SDS011;40181;51.560;13.000;2023-10-31T01:55:20;7.18;;;2.92;;
54269;SDS011;40181;51.560;13.000;2023-10-31T01:57:55;9.23;;;4.80;;
54269;SDS011;40181;51.560;13.000;2023-10-31T02:00:24;5.30;;;3.45;;
54269;SDS011;40181;51.560;13.000;2023-10-31T02:02:51;6.43;;;4.47;;
54269;SDS011;40181;51.560;13.000;2023-10-31T02:05:22;7.70;;;4.22;;
54269;SDS011;40181;51.560;13.000;2023-10-31T02:07:53;4.43;;;3.13;;
54269;SDS011;40181;51.560;13.000;2023-10-31T02:10:23;7.32;;;4.35;;
54269;SDS011;40181;51.560;13.000;2023-10-31T02:12:54;5.57;;;4.05;;
54269;SDS011;40181;51.560;13.000;2023-10-31T02:15:24;4.60;;;3.55;;
54269;SDS011;40181;51.560;13.000;2023-10-31T02:17:53;6.60;;;4.97;;
54269;SDS011;40181;51.560;13.000;2023-10-31T02:20:23;6.50;;;4.32;;
54269;SDS011;40181;51.560;13.000;2023-10-31T02:22:54;7.50;;;4.95;;
54269;SDS011;40181;51.560;13.000;2023-10-31T02:25:23;3.35;;;2.85;;
54269;SDS011;40181;51.560;13.000;2023-10-31T02:27:53;10.38;;;6.78;;
54269;SDS011;40181;51.560;13.000;2023-10-31T02:30:22;6.25;;;4.72;;
54269;SDS011;40181;51.560;13.000;2023-10-31T02:32:52;4.78;;;3.45;;
54269;SDS011;40181;51.560;13.000;2023-10-31T02:35:21;5.40;;;4.28;;
54269;SDS011;40181;51.560;13.000;2023-10-31T02:37:50;4.63;;;3.60;;
54269;SDS011;40181;51.560;13.000;2023-10-31T02:40:22;4.97;;;3.42;;
54269;SDS011;40181;51.560;13.000;2023-10-31T02:42:52;12.52;;;4.32;;
54269;SDS011;40181;51.560;13.000;2023-10-31T02:45:21;8.88;;;4.88;;
54269;SDS011;40181;51.560;13.000;2023-10-31T02:47:50;5.43;;;4.38;;
54269;SDS011;40181;51.560;13.000;2023-10-31T02:50:19;8.32;;;5.30;;
54269;SDS011;40181;51.560;13.000;2023-10-31T02:52:49;4.53;;;3.67;;
54269;SDS011;40181;51.560;13.000;2023-10-31T02:55:20;5.72;;;3.80;;
54269;SDS011;40181;51.560;13.000;2023-10-31T02:57:50;5.97;;;4.85;;
54269;SDS011;40181;51.560;13.000;2023-10-31T03:00:19;9.27;;;6.10;;
54269;SDS011;40181;51.560;13.000;2023-10-31T03:02:49;6.10;;;3.97;;
54269;SDS011;40181;51.560;13.000;2023-10-31T03:05:18;5.10;;;4.07;;
54269;SDS011;40181;51.560;13.000;2023-10-31T03:07:47;8.27;;;3.67;;
54269;SDS011;40181;51.560;13.000;2023-10-31T03:10:17;5.40;;;4.30;;
54269;SDS011;40181;51.560;13.000;2023-10-31T03:12:49;7.30;;;5.57;;
54269;SDS011;40181;51.560;13.000;2023-10-31T03:15:19;7.25;;;4.85;;
54269;SDS011;40181;51.560;13.000;2023-10-31T03:17:48;8.07;;;3.70;;
54269;SDS011;40181;51.560;13.000;2023-10-31T03:20:17;5.15;;;4.00;;
54269;SDS011;40181;51.560;13.000;2023-10-31T03:22:46;8.88;;;3.92;;
54269;SDS011;40181;51.560;13.000;2023-10-31T03:25:16;6.90;;;4.75;;
54269;SDS011;40181;51.560;13.000;2023-10-31T03:27:48;5.68;;;3.53;;
54269;SDS011;40181;51.560;13.000;2023-10-31T03:30:17;3.70;;;2.50;;
54269;SDS011;40181;51.560;13.000;2023-10-31T03:32:47;5.65;;;3.05;;
54269;SDS011;40181;51.560;13.000;2023-10-31T03:35:17;3.53;;;3.00;;
54269;SDS011;40181;51.560;13.000;2023-10-31T03:37:46;4.28;;;2.50;;
54269;SDS011;40181;51.560;13.000;2023-10-31T03:40:15;3.30;;;2.47;;
54269;SDS011;40181;51.560;13.000;2023-10-31T03:42:47;3.20;;;2.80;;
54269;SDS011;40181;51.560;13.000;2023-10-31T03:45:17;4.45;;;2.72;;
54269;SDS011;40181;51.560;13.000;2023-10-31T03:47:46;2.83;;;1.88;;
54269;SDS011;40181;51.560;13.000;2023-10-31T03:50:15;1.23;;;1.10;;
54269;SDS011;40181;51.560;13.000;2023-10-31T03:52:44;3.28;;;1.98;;
54269;SDS011;40181;51.560;13.000;2023-10-31T03:55:14;1.60;;;1.25;;
54269;SDS011;40181;51.560;13.000;2023-10-31T03:57:43;1.08;;;0.80;;
54269;SDS011;40181;51.560;13.000;2023-10-31T04:00:16;3.00;;;1.42;;
54269;SDS011;40181;51.560;13.000;2023-10-31T04:02:46;2.60;;;1.50;;
54269;SDS011;40181;51.560;13.000;2023-10-31T04:05:15;7.70;;;2.03;;
54269;SDS011;40181;51.560;13.000;2023-10-31T04:07:45;1.00;;;0.77;;
54269;SDS011;40181;51.560;13.000;2023-10-31T04:10:15;1.73;;;1.25;;
54269;SDS011;40181;51.560;13.000;2023-10-31T04:12:44;2.08;;;1.25;;
54269;SDS011;40181;51.560;13.000;2023-10-31T04:15:16;3.08;;;1.20;;
54269;SDS011;40181;51.560;13.000;2023-10-31T04:17:46;1.95;;;1.27;;
54269;SDS011;40181;51.560;13.000;2023-10-31T04:20:15;1.65;;;1.23;;
54269;SDS011;40181;51.560;13.000;2023-10-31T04:22:44;4.22;;;2.35;;
54269;SDS011;40181;51.560;13.000;2023-10-31T04:25:14;2.05;;;1.60;;
54269;SDS011;40181;51.560;13.000;2023-10-31T04:27:43;4.63;;;1.73;;
54269;SDS011;40181;51.560;13.000;2023-10-31T04:30:12;3.53;;;2.60;;
54269;SDS011;40181;51.560;13.000;2023-10-31T04:32:45;3.20;;;2.87;;
54269;SDS011;40181;51.560;13.000;2023-10-31T04:35:14;6.60;;;2.97;;
54269;SDS011;40181;51.560;13.000;2023-10-31T04:37:43;4.72;;;3.22;;
54269;SDS011;40181;51.560;13.000;2023-10-31T04:40:13;5.00;;;3.90;;
54269;SDS011;40181;51.560;13.000;2023-10-31T04:42:42;5.85;;;3.75;;
54269;SDS011;40181;51.560;13.000;2023-10-31T04:45:13;2.67;;;2.22;;
54269;SDS011;40181;51.560;13.000;2023-10-31T04:47:45;5.40;;;4.25;;
54269;SDS011;40181;51.560;13.000;2023-10-31T04:50:15;3.90;;;3.05;;
54269;SDS011;40181;51.560;13.000;2023-10-31T04:52:44;4.75;;;3.38;;
54269;SDS011;40181;51.560;13.000;2023-10-31T04:55:14;3.45;;;2.50;;
54269;SDS011;40181;51.560;13.000;2023-10-31T04:57:43;8.38;;;2.92;;
54269;SDS011;40181;51.560;13.000;2023-10-31T05:00:12;3.47;;;2.63;;
54269;SDS011;40181;51.560;13.000;2023-10-31T05:02:43;5.18;;;3.15;;
54269;SDS011;40181;51.560;13.000;2023-10-31T05:05:15;4.85;;;3.50;;
54269;SDS011;40181;51.560;13.000;2023-10-31T05:07:44;3.40;;;2.50;;
54269;SDS011;40181;51.560;13.000;2023-10-31T05:10:14;3.95;;;3.28;;
54269;SDS011;40181;51.560;13.000;2023-10-31T05:12:43;3.28;;;2.60;;
54269;SDS011;40181;51.560;13.000;2023-10-31T05:15:13;3.25;;;2.65;;
54269;SDS011;40181;51.560;13.000;2023-10-31T05:17:42;4.45;;;2.80;;
54269;SDS011;40181;51.560;13.000;2023-10-31T05:20:14;4.82;;;3.35;;
54269;SDS011;40181;51.560;13.000;2023-10-31T05:22:43;7.22;;;3.25;;
54269;SDS011;40181;51.560;13.000;2023-10-31T05:25:13;2.35;;;1.75;;
54269;SDS011;40181;51.560;13.000;2023-10-31T05:27:42;2.85;;;2.20;;
54269;SDS011;40181;51.560;13.000;2023-10-31T05:32:42;2.58;;;1.70;;
54269;SDS011;40181;51.560;13.000;2023-10-31T05:35:14;2.70;;;1.73;;
54269;SDS011;40181;51.560;13.000;2023-10-31T05:37:45;3.63;;;2.38;;
54269;SDS011;40181;51.560;13.000;2023-10-31T05:40:15;3.67;;;2.30;;
54269;SDS011;40181;51.560;13.000;2023-10-31T05:42:47;2.92;;;1.92;;
54269;SDS011;40181;51.560;13.000;2023-10-31T05:45:16;3.47;;;1.70;;
54269;SDS011;40181;51.560;13.000;2023-10-31T05:47:48;2.33;;;1.70;;
54269;SDS011;40181;51.560;13.000;2023-10-31T05:50:17;7.10;;;1.80;;
54269;SDS011;40181;51.560;13.000;2023-10-31T05:52:47;2.35;;;1.83;;
54269;SDS011;40181;51.560;13.000;2023-10-31T05:55:16;2.80;;;1.90;;
54269;SDS011;40181;51.560;13.000;2023-10-31T05:57:46;5.45;;;1.35;;
54269;SDS011;40181;51.560;13.000;2023-10-31T06:00:15;3.35;;;1.75;;
54269;SDS011;40181;51.560;13.000;2023-10-31T06:02:48;1.65;;;1.23;;
54269;SDS011;40181;51.560;13.000;2023-10-31T06:05:18;2.85;;;1.23;;
54269;SDS011;40181;51.560;13.000;2023-10-31T06:07:47;1.27;;;1.15;;
54269;SDS011;40181;51.560;13.000;2023-10-31T06:10:16;2.17;;;1.20;;
54269;SDS011;40181;51.560;13.000;2023-10-31T06:12:46;2.35;;;1.20;;
54269;SDS011;40181;51.560;13.000;2023-10-31T06:15:15;2.15;;;1.10;;
54269;SDS011;40181;51.560;13.000;2023-10-31T06:17:45;1.80;;;1.08;;
54269;SDS011;40181;51.560;13.000;2023-10-31T06:20:18;1.40;;;0.90;;
54269;SDS011;40181;51.560;13.000;2023-10-31T06:22:47;0.80;;;0.73;;
54269;SDS011;40181;51.560;13.000;2023-10-31T06:25:16;1.10;;;0.80;;
54269;SDS011;40181;51.560;13.000;2023-10-31T06:27:45;1.05;;;0.80;;
54269;SDS011;40181;51.560;13.000;2023-10-31T06:30:15;1.15;;;0.80;;
54269;SDS011;40181;51.560;13.000;2023-10-31T06:32:45;0.40;;;0.40;;
54269;SDS011;40181;51.560;13.000;2023-10-31T06:35:16;0.47;;;0.47;;
54269;SDS011;40181;51.560;13.000;2023-10-31T06:37:46;3.72;;;0.98;;
54269;SDS011;40181;51.560;13.000;2023-10-31T06:40:15;0.73;;;0.57;;
54269;SDS011;40181;51.560;13.000;2023-10-31T06:42:45;0.80;;;0.60;;
54269;SDS011;40181;51.560;13.000;2023-10-31T06:45:14;0.50;;;0.50;;
54269;SDS011;40181;51.560;13.000;2023-10-31T06:47:43;0.40;;;0.40;;
54269;SDS011;40181;51.560;13.000;2023-10-31T06:50:15;1.17;;;0.60;;
54269;SDS011;40181;51.560;13.000;2023-10-31T06:52:44;0.52;;;0.50;;
54269;SDS011;40181;51.560;13.000;2023-10-31T06:55:14;3.80;;;1.05;;
54269;SDS011;40181;51.560;13.000;2023-10-31T06:57:43;3.92;;;0.57;;
54269;SDS011;40181;51.560;13.000;2023-10-31T07:00:13;1.20;;;0.63;;
54269;SDS011;40181;51.560;13.000;2023-10-31T07:02:43;1.77;;;0.90;;
54269;SDS011;40181;51.560;13.000;2023-10-31T07:05:15;0.50;;;0.45;;
54269;SDS011;40181;51.560;13.000;2023-10-31T07:07:45;0.82;;;0.50;;
54269;SDS011;40181;51.560;13.000;2023-10-31T07:10:14;1.77;;;0.80;;
54269;SDS011;40181;51.560;13.000;2023-10-31T07:12:43;0.50;;;0.50;;
54269;SDS011;40181;51.560;13.000;2023-10-31T07:15:12;1.27;;;0.65;;
54269;SDS011;40181;51.560;13.000;2023-10-31T07:17:46;1.35;;;0.73;;
54269;SDS011;40181;51.560;13.000;2023-10-31T07:20:18;0.65;;;0.43;;
54269;SDS011;40181;51.560;13.000;2023-10-31T07:22:47;0.50;;;0.50;;
54269;SDS011;40181;51.560;13.000;2023-10-31T07:25:16;1.33;;;0.57;;
54269;SDS011;40181;51.560;13.000;2023-10-31T07:27:46;1.25;;;0.55;;
54269;SDS011;40181;51.560;13.000;2023-10-31T07:30:15;0.98;;;0.60;;
54269;SDS011;40181;51.560;13.000;2023-10-31T07:32:44;1.00;;;0.68;;
54269;SDS011;40181;51.560;13.000;2023-10-31T07:35:13;7.57;;;1.05;;
54269;SDS011;40181;51.560;13.000;2023-10-31T07:37:46;0.68;;;0.63;;
54269;SDS011;40181;51.560;13.000;2023-10-31T07:40:15;0.73;;;0.50;;
54269;SDS011;40181;51.560;13.000;2023-10-31T07:42:44;2.35;;;0.68;;
54269;SDS011;40181;51.560;13.000;2023-10-31T07:45:13;0.20;;;0.20;;
54269;SDS011;40181;51.560;13.000;2023-10-31T07:47:43;1.10;;;0.57;;
54269;SDS011;40181;51.560;13.000;2023-10-31T07:50:12;0.98;;;0.57;;
54269;SDS011;40181;51.560;13.000;2023-10-31T07:52:44;0.70;;;0.60;;
54269;SDS011;40181;51.560;13.000;2023-10-31T07:55:13;3.30;;;0.55;;
54269;SDS011;40181;51.560;13.000;2023-10-31T07:57:43;0.70;;;0.50;;
54269;SDS011;40181;51.560;13.000;2023-10-31T08:00:13;0.40;;;0.40;;
54269;SDS011;40181;51.560;13.000;2023-10-31T08:02:43;0.45;;;0.38;;
54269;SDS011;40181;51.560;13.000;2023-10-31T08:05:12;0.50;;;0.40;;
54269;SDS011;40181;51.560;13.000;2023-10-31T08:07:44;0.75;;;0.40;;
54269;SDS011;40181;51.560;13.000;2023-10-31T08:10:13;0.63;;;0.47;;
54269;SDS011;40181;51.560;13.000;2023-10-31T08:12:43;0.80;;;0.40;;
54269;SDS011;40181;51.560;13.000;2023-10-31T08:15:13;1.15;;;0.50;;
54269;SDS011;40181;51.560;13.000;2023-10-31T08:17:42;0.30;;;0.30;;
54269;SDS011;40181;51.560;13.000;2023-10-31T08:20:12;0.38;;;0.38;;
54269;SDS011;40181;51.560;13.000;2023-10-31T08:22:44;1.42;;;0.50;;
54269;SDS011;40181;51.560;13.000;2023-10-31T08:25:14;0.85;;;0.50;;
54269;SDS011;40181;51.560;13.000;2023-10-31T08:27:43;1.33;;;0.52;;
54269;SDS011;40181;51.560;13.000;2023-10-31T08:30:12;1.75;;;0.85;;
54269;SDS011;40181;51.560;13.000;2023-10-31T08:32:42;0.30;;;0.30;;
54269;SDS011;40181;51.560;13.000;2023-10-31T08:35:11;0.95;;;0.57;;
54269;SDS011;40181;51.560;13.000;2023-10-31T08:37:40;1.40;;;0.50;;
54269;SDS011;40181;51.560;13.000;2023-10-31T08:40:12;0.43;;;0.32;;
54269;SDS011;40181;51.560;13.000;2023-10-31T08:42:42;0.40;;;0.40;;
54269;SDS011;40181;51.560;13.000;2023-10-31T08:45:12;1.10;;;0.63;;
54269;SDS011;40181;51.560;13.000;2023-10-31T08:47:41;2.75;;;0.63;;
54269;SDS011;40181;51.560;13.000;2023-10-31T08:50:10;0.77;;;0.38;;
54269;SDS011;40181;51.560;13.000;2023-10-31T08:52:40;0.77;;;0.43;;
54269;SDS011;40181;51.560;13.000;2023-10-31T08:55:12;0.30;;;0.30;;
54269;SDS011;40181;51.560;13.000;2023-10-31T08:57:41;2.88;;;0.55;;
54269;SDS011;40181;51.560;13.000;2023-10-31T09:00:10;1.27;;;0.50;;
54269;SDS011;40181;51.560;13.000;2023-10-31T09:02:41;1.63;;;0.38;;
54269;SDS011;40181;51.560;13.000;2023-10-31T09:05:10;2.55;;;0.98;;
54269;SDS011;40181;51.560;13.000;2023-10-31T09:07:39;0.63;;;0.47;;
54269;SDS011;40181;51.560;13.000;2023-10-31T09:10:11;1.92;;;0.70;;
54269;SDS011;40181;51.560;13.000;2023-10-31T09:12:41;1.27;;;0.70;;
54269;SDS011;40181;51.560;13.000;2023-10-31T09:15:11;1.15;;;0.60;;
54269;SDS011;40181;51.560;13.000;2023-10-31T09:17:41;0.95;;;0.60;;
54269;SDS011;40181;51.560;13.000;2023-10-31T09:20:10;0.30;;;0.30;;
54269;SDS011;40181;51.560;13.000;2023-10-31T09:22:40;0.43;;;0.32;;
54269;SDS011;40181;51.560;13.000;2023-10-31T09:25:12;0.77;;;0.50;;
54269;SDS011;40181;51.560;13.000;2023-10-31T09:27:41;1.02;;;0.50;;
54269;SDS011;40181;51.560;13.000;2023-10-31T09:30:11;0.50;;;0.50;;
54269;SDS011;40181;51.560;13.000;2023-10-31T09:32:40;1.83;;;0.70;;
54269;SDS011;40181;51.560;13.000;2023-10-31T09:35:10;1.17;;;0.68;;
54269;SDS011;40181;51.560;13.000;2023-10-31T09:37:39;1.38;;;0.65;;
54269;SDS011;40181;51.560;13.000;2023-10-31T09:40:09;5.10;;;0.98;;
54269;SDS011;40181;51.560;13.000;2023-10-31T09:42:41;0.52;;;0.50;;
54269;SDS011;40181;51.560;13.000;2023-10-31T09:45:11;1.17;;;0.70;;
54269;SDS011;40181;51.560;13.000;2023-10-31T09:47:41;1.47;;;0.50;;
54269;SDS011;40181;51.560;13.000;2023-10-31T09:50:10;0.88;;;0.40;;
54269;SDS011;40181;51.560;13.000;2023-10-31T09:52:40;2.35;;;0.82;;
54269;SDS011;40181;51.560;13.000;2023-10-31T09:55:12;0.77;;;0.68;;
54269;SDS011;40181;51.560;13.000;2023-10-31T09:57:41;0.80;;;0.50;;
54269;SDS011;40181;51.560;13.000;2023-10-31T10:00:11;0.90;;;0.40;;
54269;SDS011;40181;51.560;13.000;2023-10-31T10:02:41;0.63;;;0.57;;
54269;SDS011;40181;51.560;13.000;2023-10-31T10:05:10;0.98;;;0.63;;
54269;SDS011;40181;51.560;13.000;2023-10-31T10:07:43;0.50;;;0.43;;
54269;SDS011;40181;51.560;13.000;2023-10-31T10:10:18;0.90;;;0.43;;
54269;SDS011;40181;51.560;13.000;2023-10-31T10:12:47;0.20;;;0.20;;
54269;SDS011;40181;51.560;13.000;2023-10-31T10:15:16;0.30;;;0.25;;
54269;SDS011;40181;51.560;13.000;2023-10-31T10:17:48;1.85;;;0.57;;
54269;SDS011;40181;51.560;13.000;2023-10-31T10:20:18;1.17;;;0.55;;
54269;SDS011;40181;51.560;13.000;2023-10-31T10:22:47;1.08;;;0.55;;
54269;SDS011;40181;51.560;13.000;2023-10-31T10:25:19;3.22;;;0.40;;
54269;SDS011;40181;51.560;13.000;2023-10-31T10:27:48;0.20;;;0.17;;
54269;SDS011;40181;51.560;13.000;2023-10-31T10:30:17;0.28;;;0.28;;
54269;SDS011;40181;51.560;13.000;2023-10-31T10:32:49;0.75;;;0.40;;
54269;SDS011;40181;51.560;13.000;2023-10-31T10:35:18;0.30;;;0.30;;
54269;SDS011;40181;51.560;13.000;2023-10-31T10:37:48;0.20;;;0.20;;
54269;SDS011;40181;51.560;13.000;2023-10-31T10:40:25;0.20;;;0.20;;
54269;SDS011;40181;51.560;13.000;2023-10-31T10:42:55;1.15;;;0.30;;
54269;SDS011;40181;51.560;13.000;2023-10-31T10:45:28;0.13;;;0.13;;
54269;SDS011;40181;51.560;13.000;2023-10-31T10:47:59;0.55;;;0.40;;
54269;SDS011;40181;51.560;13.000;2023-10-31T10:50:33;0.30;;;0.28;;
54269;SDS011;40181;51.560;13.000;2023-10-31T10:53:12;0.15;;;0.15;;
54269;SDS011;40181;51.560;13.000;2023-10-31T10:55:55;0.20;;;0.20;;
54269;SDS011;40181;51.560;13.000;2023-10-31T10:58:32;0.55;;;0.30;;
54269;SDS011;40181;51.560;13.000;2023-10-31T11:01:07;0.88;;;0.38;;
54269;SDS011;40181;51.560;13.000;2023-10-31T11:03:38;0.65;;;0.20;;
54269;SDS011;40181;51.560;13.000;2023-10-31T11:06:08;0.30;;;0.20;;
54269;SDS011;40181;51.560;13.000;2023-10-31T11:08:38;6.22;;;0.50;;
54269;SDS011;40181;51.560;13.000;2023-10-31T11:11:11;0.52;;;0.35;;
54269;SDS011;40181;51.560;13.000;2023-10-31T11:13:42;0.50;;;0.20;;
54269;SDS011;40181;51.560;13.000;2023-10-31T11:16:13;0.10;;;0.10;;
54269;SDS011;40181;51.560;13.000;2023-10-31T11:18:51;0.13;;;0.13;;
54269;SDS011;40181;51.560;13.000;2023-10-31T11:21:22;0.45;;;0.30;;
54269;SDS011;40181;51.560;13.000;2023-10-31T11:23:56;0.10;;;0.10;;
54269;SDS011;40181;51.560;13.000;2023-10-31T11:26:29;0.30;;;0.30;;
54269;SDS011;40181;51.560;13.000;2023-10-31T11:29:05;0.98;;;0.40;;
54269;SDS011;40181;51.560;13.000;2023-10-31T11:31:35;0.38;;;0.30;;
54269;SDS011;40181;51.560;13.000;2023-10-31T11:34:06;0.82;;;0.25;;
54269;SDS011;40181;51.560;13.000;2023-10-31T11:36:35;0.20;;;0.20;;
54269;SDS011;40181;51.560;13.000;2023-10-31T11:39:11;3.50;;;0.50;;
54269;SDS011;40181;51.560;13.000;2023-10-31T11:41:48;0.30;;;0.20;;
54269;SDS011;40181;51.560;13.000;2023-10-31T11:44:18;0.20;;;0.20;;
54269;SDS011;40181;51.560;13.000;2023-10-31T11:46:51;0.20;;;0.20;;
54269;SDS011;40181;51.560;13.000;2023-10-31T11:52:16;0.55;;;0.32;;
54269;SDS011;40181;51.560;13.000;2023-10-31T11:54:46;0.93;;;0.50;;
54269;SDS011;40181;51.560;13.000;2023-10-31T11:57:28;1.95;;;0.35;;
54269;SDS011;40181;51.560;13.000;2023-10-31T11:59:57;0.10;;;0.10;;
54269;SDS011;40181;51.560;13.000;2023-10-31T12:05:07;0.20;;;0.20;;
54269;SDS011;40181;51.560;13.000;2023-10-31T12:10:11;0.10;;;0.10;;
54269;SDS011;40181;51.560;13.000;2023-10-31T12:12:43;0.40;;;0.22;;
54269;SDS011;40181;51.560;13.000;2023-10-31T12:15:13;0.20;;;0.20;;
54269;SDS011;40181;51.560;13.000;2023-10-31T12:17:42;0.20;;;0.20;;
54269;SDS011;40181;51.560;13.000;2023-10-31T12:20:11;1.15;;;0.43;;
54269;SDS011;40181;51.560;13.000;2023-10-31T12:22:41;0.30;;;0.30;;
54269;SDS011;40181;51.560;13.000;2023-10-31T12:25:11;0.68;;;0.40;;
54269;SDS011;40181;51.560;13.000;2023-10-31T12:27:46;0.80;;;0.40;;
54269;SDS011;40181;51.560;13.000;2023-10-31T12:30:18;0.20;;;0.20;;
54269;SDS011;40181;51.560;13.000;2023-10-31T12:32:53;0.75;;;0.40;;
54269;SDS011;40181;51.560;13.000;2023-10-31T12:35:24;0.75;;;0.57;;
54269;SDS011;40181;51.560;13.000;2023-10-31T12:37:54;0.63;;;0.35;;
54269;SDS011;40181;51.560;13.000;2023-10-31T12:40:24;1.20;;;0.40;;
54269;SDS011;40181;51.560;13.000;2023-10-31T12:42:57;0.90;;;0.45;;
54269;SDS011;40181;51.560;13.000;2023-10-31T12:45:28;0.38;;;0.30;;
54269;SDS011;40181;51.560;13.000;2023-10-31T12:48:01;0.93;;;0.63;;
54269;SDS011;40181;51.560;13.000;2023-10-31T12:50:32;2.75;;;0.43;;
54269;SDS011;40181;51.560;13.000;2023-10-31T12:53:02;0.60;;;0.35;;
54269;SDS011;40181;51.560;13.000;2023-10-31T12:55:37;0.38;;;0.30;;
54269;SDS011;40181;51.560;13.000;2023-10-31T12:58:11;1.15;;;0.57;;
54269;SDS011;40181;51.560;13.000;2023-10-31T13:00:49;0.30;;;0.25;;
54269;SDS011;40181;51.560;13.000;2023-10-31T13:03:19;0.25;;;0.25;;
54269;SDS011;40181;51.560;13.000;2023-10-31T13:05:48;1.15;;;0.70;;
54269;SDS011;40181;51.560;13.000;2023-10-31T13:08:17;0.57;;;0.43;;
54269;SDS011;40181;51.560;13.000;2023-10-31T13:10:47;0.30;;;0.30;;
54269;SDS011;40181;51.560;13.000;2023-10-31T13:13:18;0.25;;;0.25;;
54269;SDS011;40181;51.560;13.000;2023-10-31T13:15:47;2.28;;;0.50;;
54269;SDS011;40181;51.560;13.000;2023-10-31T13:18:17;1.08;;;0.50;;
54269;SDS011;40181;51.560;13.000;2023-10-31T13:20:47;0.50;;;0.30;;
54269;SDS011;40181;51.560;13.000;2023-10-31T13:23:16;0.63;;;0.40;;
54269;SDS011;40181;51.560;13.000;2023-10-31T13:25:45;0.60;;;0.40;;
54269;SDS011;40181;51.560;13.000;2023-10-31T13:28:15;0.80;;;0.32;;
54269;SDS011;40181;51.560;13.000;2023-10-31T13:30:47;1.20;;;0.47;;
54269;SDS011;40181;51.560;13.000;2023-10-31T13:33:16;0.30;;;0.30;;
54269;SDS011;40181;51.560;13.000;2023-10-31T13:35:46;1.05;;;0.40;;
54269;SDS011;40181;51.560;13.000;2023-10-31T13:38:15;0.43;;;0.40;;
54269;SDS011;40181;51.560;13.000;2023-10-31T13:40:45;1.42;;;0.55;;
54269;SDS011;40181;51.560;13.000;2023-10-31T13:43:14;0.52;;;0.40;;
54269;SDS011;40181;51.560;13.000;2023-10-31T13:45:46;0.30;;;0.30;;
54269;SDS011;40181;51.560;13.000;2023-10-31T13:48:15;1.25;;;0.82;;
54269;SDS011;40181;51.560;13.000;2023-10-31T13:50:44;0.40;;;0.40;;
54269;SDS011;40181;51.560;13.000;2023-10-31T13:53:14;0.80;;;0.68;;
54269;SDS011;40181;51.560;13.000;2023-10-31T13:55:44;0.47;;;0.45;;
54269;SDS011;40181;51.560;13.000;2023-10-31T13:58:13;0.47;;;0.40;;
54269;SDS011;40181;51.560;13.000;2023-10-31T14:00:45;0.55;;;0.55;;
54269;SDS011;40181;51.560;13.000;2023-10-31T14:03:15;0.30;;;0.30;;
54269;SDS011;40181;51.560;13.000;2023-10-31T14:05:44;0.50;;;0.50;;
54269;SDS011;40181;51.560;13.000;2023-10-31T14:08:13;5.57;;;0.63;;
54269;SDS011;40181;51.560;13.000;2023-10-31T14:10:42;0.68;;;0.60;;
54269;SDS011;40181;51.560;13.000;2023-10-31T14:13:12;0.55;;;0.50;;
54269;SDS011;40181;51.560;13.000;2023-10-31T14:15:41;0.85;;;0.52;;
54269;SDS011;40181;51.560;13.000;2023-10-31T14:18:14;0.68;;;0.40;;
54269;SDS011;40181;51.560;13.000;2023-10-31T14:20:44;0.53;;;0.47;;
54269;SDS011;40181;51.560;13.000;2023-10-31T14:23:13;1.02;;;0.60;;
54269;SDS011;40181;51.560;13.000;2023-10-31T14:25:42;0.73;;;0.50;;
54269;SDS011;40181;51.560;13.000;2023-10-31T14:28:11;1.08;;;0.50;;
54269;SDS011;40181;51.560;13.000;2023-10-31T14:30:40;0.50;;;0.50;;
54269;SDS011;40181;51.560;13.000;2023-10-31T14:33:12;0.40;;;0.40;;
54269;SDS011;40181;51.560;13.000;2023-10-31T14:35:42;0.70;;;0.60;;
54269;SDS011;40181;51.560;13.000;2023-10-31T14:38:11;2.63;;;0.88;;
54269;SDS011;40181;51.560;13.000;2023-10-31T14:40:41;0.45;;;0.45;;
54269;SDS011;40181;51.560;13.000;2023-10-31T14:43:10;0.50;;;0.50;;
54269;SDS011;40181;51.560;13.000;2023-10-31T14:45:43;0.95;;;0.60;;
54269;SDS011;40181;51.560;13.000;2023-10-31T14:48:15;2.20;;;1.13;;
54269;SDS011;40181;51.560;13.000;2023-10-31T14:50:44;1.67;;;0.82;;
54269;SDS011;40181;51.560;13.000;2023-10-31T14:53:13;0.82;;;0.60;;
54269;SDS011;40181;51.560;13.000;2023-10-31T14:55:44;0.90;;;0.68;;
54269;SDS011;40181;51.560;13.000;2023-10-31T14:58:14;1.27;;;0.75;;
54269;SDS011;40181;51.560;13.000;2023-10-31T15:00:43;0.40;;;0.40;;
54269;SDS011;40181;51.560;13.000;2023-10-31T15:03:15;0.63;;;0.63;;